Time;durP1;ratioP1;P1;durP2;ratioP2;P2;SDS_P1;SDS_P2;PMS_P1;PMS_P2;Temp;Humidity;BMP_temperature;BMP_pressure;BME280_temperature;BME280_humidity;BME280_pressure;Samples;Min_cycle;Max_cycle;Signal;HPM_P1;HPM_P2
2021/03/29 00:02:16;;;;;;;115.55;53.55;;;;;;;;;;4998359;28;20124;-45
2021/03/29 00:04:42;;;;;;;109.63;51.63;;;;;;;;;;4995878;28;20044;-46
2021/03/29 00:07:09;;;;;;;92.65;45.42;;;;;;;;;;4996387;28;20030;-46
2021/03/29 00:09:36;;;;;;;83.95;41.42;;;;;;;;;;4996650;28;20097;-45
2021/03/29 00:12:04;;;;;;;101.07;47.47;;;;;;;;;;4995781;28;20054;-43
2021/03/29 00:14:31;;;;;;;108.88;50.80;;;;;;;;;;4995824;28;20398;-41
2021/03/29 00:16:57;;;;;;;107.43;53.55;;;;;;;;;;4996188;28;20025;-43
2021/03/29 00:19:24;;;;;;;100.50;48.72;;;;;;;;;;4995971;28;20416;-43
2021/03/29 00:21:51;;;;;;;99.60;49.10;;;;;;;;;;4996066;28;20892;-44
2021/03/29 00:24:17;;;;;;;100.35;47.72;;;;;;;;;;4996205;28;20116;-42
2021/03/29 00:26:43;;;;;;;99.72;49.42;;;;;;;;;;4996297;28;20103;-42
2021/03/29 00:29:09;;;;;;;94.93;48.35;;;;;;;;;;4995938;28;20578;-43
2021/03/29 00:31:36;;;;;;;99.93;50.55;;;;;;;;;;4995993;28;20032;-42
2021/03/29 00:34:05;;;;;;;84.85;43.75;;;;;;;;;;4995926;28;20359;-44
2021/03/29 00:36:34;;;;;;;74.30;38.55;;;;;;;;;;4996006;28;20025;-42
2021/03/29 00:39:00;;;;;;;82.38;37.50;;;;;;;;;;4995532;28;20052;-43
2021/03/29 00:41:27;;;;;;;77.03;41.15;;;;;;;;;;4995922;28;20045;-43
2021/03/29 00:43:53;;;;;;;80.30;39.53;;;;;;;;;;4995835;28;20026;-44
2021/03/29 00:46:20;;;;;;;99.55;48.70;;;;;;;;;;4995656;28;20093;-42
2021/03/29 00:48:49;;;;;;;109.72;54.22;;;;;;;;;;4996160;28;20026;-42
2021/03/29 00:51:17;;;;;;;100.82;50.70;;;;;;;;;;4995761;28;21789;-44
2021/03/29 00:53:54;;;;;;;95.32;46.63;;;;;;;;;;4996158;28;20041;-43
2021/03/29 00:56:21;;;;;;;93.65;45.60;;;;;;;;;;4995682;28;20363;-42
2021/03/29 00:58:48;;;;;;;78.80;39.67;;;;;;;;;;4995129;28;20036;-42
2021/03/29 01:01:18;;;;;;;66.88;35.15;;;;;;;;;;4995266;28;20148;-42
2021/03/29 01:03:47;;;;;;;87.60;42.15;;;;;;;;;;4995587;28;20010;-42
2021/03/29 01:06:17;;;;;;;65.53;33.35;;;;;;;;;;4995671;28;20532;-42
2021/03/29 01:08:47;;;;;;;74.78;39.97;;;;;;;;;;4995322;28;20126;-42
2021/03/29 01:11:16;;;;;;;90.90;44.80;;;;;;;;;;4994439;28;20153;-42
2021/03/29 01:13:47;;;;;;;80.05;40.15;;;;;;;;;;4995738;28;20030;-42
2021/03/29 01:16:16;;;;;;;75.82;38.40;;;;;;;;;;4994780;28;20041;-42
2021/03/29 01:18:46;;;;;;;79.75;40.80;;;;;;;;;;4995377;28;20096;-44
2021/03/29 01:21:19;;;;;;;88.15;42.78;;;;;;;;;;4999786;28;20045;-41
2021/03/29 01:23:45;;;;;;;85.22;43.88;;;;;;;;;;5013992;28;20026;-43
2021/03/29 01:26:11;;;;;;;81.40;41.25;;;;;;;;;;5013675;28;20452;-43
2021/03/29 01:28:37;;;;;;;88.82;45.83;;;;;;;;;;5013562;28;20061;-43
2021/03/29 01:31:04;;;;;;;90.15;46.75;;;;;;;;;;5013541;28;20033;-42
2021/03/29 01:33:31;;;;;;;93.95;46.40;;;;;;;;;;5013592;28;20041;-41
2021/03/29 01:36:01;;;;;;;77.45;39.50;;;;;;;;;;5013549;28;20029;-44
2021/03/29 01:38:29;;;;;;;84.13;44.20;;;;;;;;;;5013994;28;20028;-43
2021/03/29 01:40:56;;;;;;;91.40;45.40;;;;;;;;;;5013239;28;20034;-43
2021/03/29 01:43:23;;;;;;;87.20;43.90;;;;;;;;;;5013397;28;20370;-43
2021/03/29 01:45:49;;;;;;;102.05;51.45;;;;;;;;;;5013323;28;20548;-43
2021/03/29 01:48:15;;;;;;;152.73;78.07;;;;;;;;;;5013473;28;20088;-43
2021/03/29 01:50:43;;;;;;;110.72;54.35;;;;;;;;;;5013513;28;20034;-42
2021/03/29 01:53:10;;;;;;;109.05;52.80;;;;;;;;;;5013344;28;20092;-43
2021/03/29 01:55:36;;;;;;;96.70;50.13;;;;;;;;;;5013567;28;20065;-41
2021/03/29 01:58:03;;;;;;;95.80;47.60;;;;;;;;;;5013496;28;20102;-41
2021/03/29 02:00:34;;;;;;;95.53;45.95;;;;;;;;;;5013575;28;20033;-44
2021/03/29 02:03:01;;;;;;;109.10;48.50;;;;;;;;;;5013331;28;20022;-43
2021/03/29 02:05:27;;;;;;;110.38;48.35;;;;;;;;;;5013074;28;20041;-43
2021/03/29 02:07:54;;;;;;;94.00;43.72;;;;;;;;;;5013269;28;20028;-44
2021/03/29 02:10:23;;;;;;;92.30;42.80;;;;;;;;;;5013245;28;20041;-44
2021/03/29 02:12:50;;;;;;;92.53;42.50;;;;;;;;;;5012931;28;20493;-43
2021/03/29 02:15:19;;;;;;;94.55;45.38;;;;;;;;;;5013142;28;20037;-42
2021/03/29 02:17:46;;;;;;;89.22;41.35;;;;;;;;;;5013060;28;20469;-42
2021/03/29 02:20:13;;;;;;;87.85;40.53;;;;;;;;;;5013400;28;20036;-42
2021/03/29 02:22:40;;;;;;;85.18;40.28;;;;;;;;;;5013113;28;20425;-42
2021/03/29 02:25:08;;;;;;;79.65;36.80;;;;;;;;;;5013177;28;20394;-42
2021/03/29 02:27:35;;;;;;;84.20;39.97;;;;;;;;;;5015469;28;20089;-42
2021/03/29 02:30:06;;;;;;;88.47;46.17;;;;;;;;;;5016808;28;20033;-42
2021/03/29 02:32:32;;;;;;;116.80;61.47;;;;;;;;;;5016684;28;20033;-43
2021/03/29 02:34:58;;;;;;;114.03;60.25;;;;;;;;;;5016844;28;20026;-42
2021/03/29 02:37:24;;;;;;;97.82;53.80;;;;;;;;;;5016531;28;20422;-42
2021/03/29 02:39:51;;;;;;;84.28;45.88;;;;;;;;;;5016525;28;20026;-42
2021/03/29 02:42:17;;;;;;;67.20;35.17;;;;;;;;;;5016328;28;20037;-42
2021/03/29 02:44:43;;;;;;;47.28;24.08;;;;;;;;;;5016446;28;20397;-42
2021/03/29 02:47:09;;;;;;;48.42;22.38;;;;;;;;;;5016357;28;20022;-42
2021/03/29 02:49:38;;;;;;;47.35;25.92;;;;;;;;;;5016393;28;20066;-42
2021/03/29 02:52:05;;;;;;;49.97;26.02;;;;;;;;;;5016342;28;20049;-43
2021/03/29 02:54:31;;;;;;;56.67;26.70;;;;;;;;;;5016352;28;20105;-43
2021/03/29 02:56:58;;;;;;;56.83;25.15;;;;;;;;;;5016225;28;20400;-43
2021/03/29 02:59:27;;;;;;;53.97;26.52;;;;;;;;;;5016202;28;20022;-42
2021/03/29 03:01:53;;;;;;;54.35;25.13;;;;;;;;;;5016024;28;20030;-43
2021/03/29 03:04:19;;;;;;;44.83;23.92;;;;;;;;;;5016294;28;20125;-43
2021/03/29 03:06:46;;;;;;;39.47;21.70;;;;;;;;;;5016059;28;20029;-43
2021/03/29 03:09:13;;;;;;;47.63;23.35;;;;;;;;;;5016161;28;20393;-43
2021/03/29 03:11:40;;;;;;;41.20;23.50;;;;;;;;;;5015679;28;20050;-43
2021/03/29 03:14:07;;;;;;;37.55;21.48;;;;;;;;;;5015973;28;20026;-43
2021/03/29 03:16:36;;;;;;;39.35;21.77;;;;;;;;;;5015740;28;20026;-43
2021/03/29 03:19:03;;;;;;;45.03;21.60;;;;;;;;;;5015764;28;20116;-43
2021/03/29 03:21:32;;;;;;;47.33;23.80;;;;;;;;;;5015785;28;20028;-42
2021/03/29 03:23:58;;;;;;;48.95;25.30;;;;;;;;;;5015715;28;20044;-43
2021/03/29 03:26:25;;;;;;;112.07;50.90;;;;;;;;;;5015710;28;20496;-43
2021/03/29 03:28:51;;;;;;;106.25;49.17;;;;;;;;;;5015714;28;20029;-43
2021/03/29 03:31:18;;;;;;;115.60;53.45;;;;;;;;;;5015531;28;20478;-43
2021/03/29 03:33:44;;;;;;;101.38;48.75;;;;;;;;;;5015734;28;20033;-43
2021/03/29 03:36:11;;;;;;;89.97;45.00;;;;;;;;;;5015833;28;20026;-43
2021/03/29 03:38:43;;;;;;;103.60;44.67;;;;;;;;;;5015216;28;20018;-43
2021/03/29 03:41:10;;;;;;;88.13;42.38;;;;;;;;;;5015318;28;20033;-43
2021/03/29 03:43:37;;;;;;;85.45;41.20;;;;;;;;;;5015385;28;20425;-43
2021/03/29 03:46:09;;;;;;;91.95;44.13;;;;;;;;;;5015179;28;20097;-43
2021/03/29 03:48:37;;;;;;;99.18;43.60;;;;;;;;;;5015364;28;20058;-43
2021/03/29 03:51:06;;;;;;;90.53;43.38;;;;;;;;;;5015329;28;20465;-43
2021/03/29 03:53:32;;;;;;;96.80;44.38;;;;;;;;;;5015570;28;20485;-43
2021/03/29 03:55:59;;;;;;;96.90;43.15;;;;;;;;;;5015572;28;20022;-43
2021/03/29 03:58:28;;;;;;;89.63;43.70;;;;;;;;;;5015200;28;20026;-44
2021/03/29 04:00:58;;;;;;;93.30;44.25;;;;;;;;;;5014945;28;20014;-44
2021/03/29 04:03:24;;;;;;;90.10;42.65;;;;;;;;;;5015086;28;20030;-43
2021/03/29 04:05:51;;;;;;;93.35;45.33;;;;;;;;;;5014788;28;20034;-43
2021/03/29 04:08:17;;;;;;;93.68;44.72;;;;;;;;;;5014796;28;20025;-44
2021/03/29 04:10:46;;;;;;;89.57;44.78;;;;;;;;;;5014719;28;20448;-43
2021/03/29 04:13:22;;;;;;;97.63;44.70;;;;;;;;;;5014612;28;20142;-43
2021/03/29 04:15:48;;;;;;;93.35;45.05;;;;;;;;;;5014988;28;20385;-44
2021/03/29 04:18:14;;;;;;;96.82;46.15;;;;;;;;;;5014718;28;20045;-44
2021/03/29 04:20:43;;;;;;;92.80;47.33;;;;;;;;;;5014877;28;20092;-43
2021/03/29 04:23:12;;;;;;;96.75;47.78;;;;;;;;;;5014678;28;20017;-43
2021/03/29 04:25:38;;;;;;;110.10;56.60;;;;;;;;;;5014782;28;20223;-43
2021/03/29 04:28:04;;;;;;;100.78;50.58;;;;;;;;;;5014369;28;20026;-44
2021/03/29 04:30:30;;;;;;;92.45;45.42;;;;;;;;;;5014546;28;20034;-43
2021/03/29 04:32:56;;;;;;;95.53;48.40;;;;;;;;;;5014612;28;20026;-44
2021/03/29 04:35:24;;;;;;;95.72;45.85;;;;;;;;;;5014591;28;20029;-44
2021/03/29 04:37:51;;;;;;;87.60;44.67;;;;;;;;;;5012501;28;20041;-44
2021/03/29 04:40:18;;;;;;;93.75;46.25;;;;;;;;;;5014264;28;20032;-43
2021/03/29 04:42:44;;;;;;;97.03;46.72;;;;;;;;;;5014122;28;20141;-44
2021/03/29 04:45:10;;;;;;;98.18;47.97;;;;;;;;;;5014411;28;20048;-44
2021/03/29 04:47:36;;;;;;;94.20;48.15;;;;;;;;;;5014125;28;20022;-44
2021/03/29 04:50:04;;;;;;;100.00;48.47;;;;;;;;;;5013290;28;20478;-43
2021/03/29 04:52:30;;;;;;;95.32;46.78;;;;;;;;;;5014161;28;20033;-44
2021/03/29 04:54:58;;;;;;;91.47;45.58;;;;;;;;;;5014107;28;20025;-44
2021/03/29 04:57:25;;;;;;;81.75;45.05;;;;;;;;;;5014041;28;20065;-44
2021/03/29 04:59:51;;;;;;;88.10;45.95;;;;;;;;;;5014146;28;20018;-43
2021/03/29 05:02:17;;;;;;;91.45;47.15;;;;;;;;;;5014197;28;20018;-43
2021/03/29 05:04:43;;;;;;;89.40;47.03;;;;;;;;;;5013941;28;20101;-43
2021/03/29 05:07:10;;;;;;;89.80;46.30;;;;;;;;;;5014010;28;20476;-43
2021/03/29 05:09:36;;;;;;;103.35;46.42;;;;;;;;;;5013821;28;20109;-43
2021/03/29 05:12:11;;;;;;;93.03;47.90;;;;;;;;;;5013672;28;20077;-43
2021/03/29 05:14:38;;;;;;;103.20;50.22;;;;;;;;;;5014105;28;20080;-43
2021/03/29 05:17:05;;;;;;;104.63;52.85;;;;;;;;;;5013727;28;20052;-42
2021/03/29 05:19:31;;;;;;;118.07;56.42;;;;;;;;;;5013822;28;20033;-42
2021/03/29 05:21:57;;;;;;;124.75;60.55;;;;;;;;;;5013860;28;20033;-42
2021/03/29 05:24:23;;;;;;;109.35;54.75;;;;;;;;;;5013684;28;20034;-42
2021/03/29 05:26:49;;;;;;;104.47;53.38;;;;;;;;;;5013539;28;20041;-44
2021/03/29 05:29:15;;;;;;;124.93;67.30;;;;;;;;;;5013546;28;20022;-45
2021/03/29 05:31:41;;;;;;;127.88;71.30;;;;;;;;;;5013785;28;20029;-44
2021/03/29 05:34:08;;;;;;;132.13;75.68;;;;;;;;;;5013750;28;20026;-44
2021/03/29 05:36:37;;;;;;;135.63;77.95;;;;;;;;;;5013468;28;20029;-44
2021/03/29 05:39:04;;;;;;;133.68;75.60;;;;;;;;;;5013458;28;20519;-45
2021/03/29 05:41:32;;;;;;;127.50;66.40;;;;;;;;;;5013348;28;20374;-43
2021/03/29 05:43:58;;;;;;;113.18;63.58;;;;;;;;;;5013650;28;20038;-45
2021/03/29 05:46:24;;;;;;;125.47;68.13;;;;;;;;;;5013444;28;20117;-45
2021/03/29 05:48:50;;;;;;;120.57;65.10;;;;;;;;;;5013493;28;20057;-46
2021/03/29 05:51:17;;;;;;;102.78;58.25;;;;;;;;;;5013467;28;20030;-45
2021/03/29 05:53:43;;;;;;;86.97;53.40;;;;;;;;;;5013563;28;20058;-44
2021/03/29 05:56:11;;;;;;;76.57;47.20;;;;;;;;;;5013656;28;20026;-44
2021/03/29 05:58:43;;;;;;;64.32;41.47;;;;;;;;;;5013187;28;20030;-44
2021/03/29 06:01:10;;;;;;;64.93;40.50;;;;;;;;;;5014184;28;20022;-44
2021/03/29 06:03:36;;;;;;;68.90;41.60;;;;;;;;;;5017107;28;20054;-45
2021/03/29 06:06:15;;;;;;;71.70;41.88;;;;;;;;;;5017398;28;20026;-45
2021/03/29 06:08:41;;;;;;;79.10;47.75;;;;;;;;;;5017165;28;20018;-44
2021/03/29 06:11:20;;;;;;;93.75;49.03;;;;;;;;;;5015535;28;20030;-45
2021/03/29 06:13:46;;;;;;;66.53;37.17;;;;;;;;;;5017018;28;20432;-45
2021/03/29 06:16:13;;;;;;;55.25;33.83;;;;;;;;;;5017014;28;20025;-45
2021/03/29 06:18:49;;;;;;;50.83;30.15;;;;;;;;;;5015762;28;20060;-45
2021/03/29 06:21:15;;;;;;;57.42;34.28;;;;;;;;;;5017083;28;20033;-45
2021/03/29 06:23:43;;;;;;;53.88;31.60;;;;;;;;;;5016796;28;20033;-45
2021/03/29 06:26:29;;;;;;;58.47;34.45;;;;;;;;;;5016623;28;20042;-45
2021/03/29 06:28:58;;;;;;;64.22;42.63;;;;;;;;;;5016819;28;20030;-45
2021/03/29 06:31:31;;;;;;;39.00;24.90;;;;;;;;;;5016697;28;20524;-45
2021/03/29 06:33:58;;;;;;;53.92;33.25;;;;;;;;;;5016335;28;20444;-45
2021/03/29 06:36:25;;;;;;;51.95;31.95;;;717.30;460.80;;;;;;5016820;28;20041;-44
2021/03/29 06:38:51;;;;;;;58.72;35.28;;;692.00;460.80;;;;;;5016640;28;20469;-45
2021/03/29 06:41:24;;;;;;;46.97;28.98;;;;;;;;;;5016420;28;20037;-44
2021/03/29 06:43:50;;;;;;;53.85;34.63;;;666.10;512.00;;;;;;5016474;28;20026;-44
2021/03/29 06:46:23;;;;;;;49.25;27.35;;;640.60;537.60;;;;;;5016515;28;20041;-45
2021/03/29 06:48:50;;;;;;;72.15;39.38;;;640.80;512.00;;;;;;5016380;28;20026;-45
2021/03/29 06:51:18;;;;;;;52.58;31.30;;;;;;;;;;5016297;28;20022;-45
2021/03/29 06:53:45;;;;;;;37.33;22.60;;;;;;;;;;5016406;28;20026;-45
2021/03/29 06:56:21;;;;;;;49.58;28.73;;;;;;;;;;5016373;28;20436;-44
2021/03/29 06:58:48;;;;;;;40.40;22.27;;;;;;;;;;5016094;28;20105;-44
2021/03/29 07:01:18;;;;;;;42.97;22.05;;;;;;;;;;5016137;28;20029;-44
2021/03/29 07:03:45;;;;;;;74.97;44.58;;;;;;;;;;5015850;28;20030;-44
2021/03/29 07:06:12;;;;;;;117.75;69.32;;;;;;;;;;5014223;28;20408;-44
2021/03/29 07:08:38;;;;;;;59.10;32.53;;;;;;;;;;5015902;28;20018;-43
2021/03/29 07:11:05;;;;;;;52.83;29.15;;;;;;;;;;5015839;28;20477;-44
2021/03/29 07:13:32;;;;;;;83.40;49.45;;;;;;;;;;5013152;28;20508;-46
2021/03/29 07:16:01;;;;;;;73.10;39.95;;;;;;;;;;5015895;28;20026;-44
2021/03/29 07:18:27;;;;;;;82.40;44.22;;;;;;;;;;5015712;28;20478;-44
2021/03/29 07:20:54;;;;;;;82.65;44.75;;;;;;;;;;5015813;28;20026;-44
2021/03/29 07:23:20;;;;;;;83.35;45.42;;;;;;;;;;5015837;28;20030;-44
2021/03/29 07:25:46;;;;;;;95.88;52.40;;;;;;;;;;5015735;28;20034;-43
2021/03/29 07:28:14;;;;;;;65.43;32.17;;;;;;;;;;5015540;28;20492;-44
2021/03/29 07:30:51;;;;;;;109.55;47.38;;;;;;;;;;5015436;28;20025;-44
2021/03/29 07:33:18;;;;;;;59.17;32.70;;;;;;;;;;5015389;28;20026;-44
2021/03/29 07:35:50;;;;;;;35.13;16.13;;;;;;;;;;5015604;28;20026;-43
2021/03/29 07:38:17;;;;;;;38.88;20.90;;;;;;;;;;5015298;28;20029;-44
2021/03/29 07:40:44;;;;;;;72.65;38.97;;;;;;;;;;5015277;28;20042;-45
2021/03/29 07:43:14;;;;;;;96.70;50.45;;;;;;;;;;5015088;28;20022;-45
2021/03/29 07:45:42;;;;;;;72.63;38.15;;;;;;;;;;5015220;28;20484;-45
2021/03/29 07:48:10;;;;;;;49.90;29.83;;;;;;;;;;5015113;28;20390;-45
2021/03/29 07:50:36;;;;;;;74.20;38.05;;;;;;;;;;5014647;28;20057;-45
2021/03/29 07:53:20;;;;;;;92.25;31.88;;;;;;;;;;5015127;28;20030;-45
2021/03/29 07:55:47;;;;;;;86.05;45.10;;;;;;;;;;5014515;28;20478;-45
2021/03/29 07:58:20;;;;;;;138.32;81.57;;;;;;;;;;5014897;28;20030;-46
2021/03/29 08:00:48;;;;;;;60.35;31.67;;;;;;;;;;5014805;28;20076;-46
2021/03/29 08:03:14;;;;;;;72.00;35.00;;;;;;;;;;5014841;28;20072;-46
2021/03/29 08:05:47;;;;;;;53.65;32.58;;;;;;;;;;5015067;28;20080;-45
2021/03/29 08:08:25;;;;;;;93.68;56.58;;;;;;;;;;5014592;28;20080;-44
2021/03/29 08:11:00;;;;;;;40.05;23.52;;;;;;;;;;5014569;28;20543;-45
2021/03/29 08:13:42;;;;;;;40.13;21.15;;;;;;;;;;5014741;28;20048;-46
2021/03/29 08:16:15;;;;;;;31.95;18.23;;;;;;;;;;5013432;28;20494;-46
2021/03/29 08:19:00;;;;;;;87.20;47.00;;;;;;;;;;5014750;28;20116;-46
2021/03/29 08:21:44;;;;;;;34.30;16.63;;;;;;;;;;5014691;28;20034;-46
2021/03/29 08:24:33;;;;;;;91.10;30.77;;;;;;;;;;5013937;28;20101;-44
2021/03/29 08:27:00;;;;;;;24.85;11.57;;;;;;;;;;5014466;28;20497;-45
2021/03/29 08:29:29;;;;;;;33.60;17.38;;;;;;;;;;5014386;28;20029;-46
2021/03/29 08:32:15;;;;;;;23.45;9.50;;;;;;;;;;5014714;28;20038;-47
2021/03/29 08:34:46;;;;;;;27.55;11.20;;;;;;;;;;5014544;28;20057;-46
2021/03/29 08:37:14;;;;;;;28.65;11.88;;;;;;;;;;5014456;28;20613;-45
2021/03/29 08:39:44;;;;;;;19.83;9.20;;;;;;;;;;5014337;28;20053;-44
2021/03/29 08:42:11;;;;;;;15.40;7.50;;;;;;;;;;5014064;28;20022;-44
2021/03/29 08:44:42;;;;;;;50.10;28.25;;;;;;;;;;5014360;28;20117;-44
2021/03/29 08:47:12;;;;;;;69.38;33.85;;;;;;;;;;5014383;28;20026;-47
2021/03/29 08:49:39;;;;;;;16.27;8.60;;;;;;;;;;5014361;28;20030;-45
2021/03/29 08:52:06;;;;;;;28.58;15.07;;;;;;;;;;5014135;28;20049;-45
2021/03/29 08:54:32;;;;;;;56.20;30.63;;;;;;;;;;5013766;28;20032;-46
2021/03/29 08:57:02;;;;;;;59.75;27.67;;;;;;;;;;5013876;28;20371;-45
2021/03/29 08:59:29;;;;;;;20.98;10.73;;;;;;;;;;5014143;28;20022;-45
2021/03/29 09:01:55;;;;;;;33.22;14.82;;;;;;;;;;5013985;28;20485;-48
2021/03/29 09:04:21;;;;;;;62.28;35.15;;;;;;;;;;5013856;28;20465;-44
2021/03/29 09:06:52;;;;;;;17.35;9.35;;;;;;;;;;5013931;28;20030;-45
2021/03/29 09:09:18;;;;;;;23.10;11.32;;;;;;;;;;5013929;28;20037;-44
2021/03/29 09:11:48;;;;;;;41.15;20.17;;;;;;;;;;5013455;28;20412;-47
2021/03/29 09:14:19;;;;;;;27.60;13.63;;;;;;;;;;5014001;28;20029;-46
2021/03/29 09:16:46;;;;;;;23.67;13.75;;;;;;;;;;5013815;28;20053;-46
2021/03/29 09:19:16;;;;;;;31.75;14.50;;;;;;;;;;5013984;28;20351;-45
2021/03/29 09:21:42;;;;;;;13.40;5.43;;;;;;;;;;5013690;28;20036;-47
2021/03/29 09:24:16;;;;;;;12.77;5.28;;;;;;;;;;5013118;28;20080;-45
2021/03/29 09:26:42;;;;;;;21.50;10.65;;;;;;;;;;5013641;28;20478;-46
2021/03/29 09:29:20;;;;;;;13.55;6.65;;;;;;;;;;5013739;28;20109;-46
2021/03/29 09:31:46;;;;;;;13.48;7.35;;;;;;;;;;5013760;28;20101;-46
2021/03/29 09:34:13;;;;;;;15.77;7.57;;;;;;;;;;5013423;28;20485;-46
2021/03/29 09:36:39;;;;;;;19.60;9.30;;;;;;;;;;5013123;28;20026;-46
2021/03/29 09:39:13;;;;;;;24.10;9.75;;;;;;;;;;5013430;28;20022;-46
2021/03/29 09:41:48;;;;;;;11.77;6.03;;;;;;;;;;5013441;28;20030;-46
2021/03/29 09:44:14;;;;;;;12.32;6.50;;;;;;;;;;5013676;28;20050;-46
2021/03/29 09:46:40;;;;;;;15.80;7.53;;;;;;;;;;5013536;28;20045;-46
2021/03/29 09:49:06;;;;;;;31.48;13.20;;;;;;;;;;5013581;28;20025;-45
2021/03/29 09:51:32;;;;;;;19.23;7.60;;;;;;;;;;5013258;28;20382;-46
2021/03/29 09:53:58;;;;;;;23.23;12.15;;;;;;;;;;5013163;28;20114;-45
2021/03/29 09:56:28;;;;;;;30.40;17.02;;;;;;;;;;5013549;28;20037;-45
2021/03/29 09:58:56;;;;;;;23.42;12.70;;;;;;;;;;5013251;28;20026;-46
2021/03/29 10:01:26;;;;;;;16.63;8.88;;;;;;;;;;5013550;28;20022;-46
2021/03/29 10:03:52;;;;;;;36.03;15.63;;;;;;;;;;5013338;28;20103;-44
2021/03/29 10:06:18;;;;;;;34.72;16.75;;;;;;;;;;5013157;28;20112;-48
2021/03/29 10:08:55;;;;;;;23.80;12.15;;;;;;;;;;5013273;28;20057;-46
2021/03/29 10:11:21;;;;;;;45.13;25.92;;;;;;;;;;5013013;28;20049;-47
2021/03/29 10:13:47;;;;;;;36.05;20.90;;;;;;;;;;5013185;28;20030;-46
2021/03/29 10:16:27;;;;;;;26.10;15.68;;;;;;;;;;5013485;28;20488;-46
2021/03/29 10:19:02;;;;;;;27.73;16.25;;;;;;;;;;5012958;28;20053;-46
2021/03/29 10:21:28;;;;;;;13.32;5.20;;;;;;;;;;5013227;28;20109;-45
2021/03/29 10:24:16;;;;;;;17.15;9.73;;;;;;;;;;5012581;28;20546;-46
2021/03/29 10:26:55;;;;;;;11.95;4.47;;;;;;;;;;5013168;28;20128;-44
2021/03/29 10:29:30;;;;;;;11.43;6.15;;;;;;;;;;5012963;28;20038;-45
2021/03/29 10:31:57;;;;;;;24.60;12.50;;;;;;;;;;5013191;28;20025;-45
2021/03/29 10:34:25;;;;;;;27.42;14.73;;;;;;;;;;5013255;28;20057;-46
2021/03/29 10:36:51;;;;;;;32.75;18.55;;;;;;;;;;5013119;28;20529;-45
2021/03/29 10:39:18;;;;;;;9.32;4.88;;;;;;;;;;5013017;28;20382;-47
2021/03/29 10:41:46;;;;;;;33.85;19.30;;;;;;;;;;5012856;28;20076;-47
2021/03/29 10:44:12;;;;;;;17.38;6.10;;;;;;;;;;5013360;28;20585;-46
2021/03/29 10:46:41;;;;;;;13.18;5.50;;;;;;;;;;5012957;28;20049;-47
2021/03/29 10:49:08;;;;;;;16.55;7.45;;;;;;;;;;5014957;28;20018;-45
2021/03/29 10:51:34;;;;;;;12.23;5.40;;;;;;;;;;5015214;28;20065;-47
2021/03/29 10:54:00;;;;;;;14.32;6.57;;;;;;;;;;5016332;28;20022;-46
2021/03/29 10:56:26;;;;;;;13.50;7.35;;;;;;;;;;5016444;28;20359;-45
2021/03/29 10:58:52;;;;;;;11.27;6.43;;;;;;;;;;5016218;28;20026;-45
2021/03/29 11:01:18;;;;;;;14.68;6.70;;;;;;;;;;5016171;28;20026;-45
2021/03/29 11:03:47;;;;;;;35.08;20.42;;;;;;;;;;5016274;28;20062;-45
2021/03/29 11:06:13;;;;;;;45.80;19.45;;;;;;;;;;5016035;28;20030;-46
2021/03/29 11:08:39;;;;;;;25.10;12.98;;;;;;;;;;5016113;28;20528;-46
2021/03/29 11:11:05;;;;;;;25.02;14.85;;;;;;;;;;5015745;28;20092;-45
2021/03/29 11:13:32;;;;;;;39.72;14.68;;;;;;;;;;5016094;28;20038;-46
2021/03/29 11:15:58;;;;;;;20.30;8.60;;;;;;;;;;5015927;28;20034;-46
2021/03/29 11:18:24;;;;;;;27.70;14.30;;;;;;;;;;5015740;28;20474;-46
2021/03/29 11:20:50;;;;;;;23.58;10.82;;;;;;;;;;5015902;28;20058;-46
2021/03/29 11:23:17;;;;;;;11.10;4.20;;;;;;;;;;5015864;28;20093;-45
2021/03/29 11:25:43;;;;;;;11.65;3.30;;;;;;;;;;5015750;28;20060;-45
2021/03/29 11:28:09;;;;;;;19.33;9.65;;;;;;;;;;5015621;28;20022;-46
2021/03/29 11:30:35;;;;;;;69.53;37.10;;;;;;;;;;5015698;28;20478;-45
2021/03/29 11:33:01;;;;;;;33.05;15.45;;;;;;;;;;5015626;28;20040;-45
2021/03/29 11:35:27;;;;;;;77.20;41.50;;;;;;;;;;5015579;28;20040;-45
2021/03/29 11:37:53;;;;;;;10.50;6.05;;;;;;;;;;5015842;28;20026;-46
2021/03/29 11:40:20;;;;;;;18.70;9.52;;;;;;;;;;5015371;28;20494;-46
2021/03/29 11:42:46;;;;;;;21.27;11.82;;;;;;;;;;5015394;28;20034;-46
2021/03/29 11:45:12;;;;;;;36.67;18.77;;;;;;;;;;5015521;28;20030;-46
2021/03/29 11:47:39;;;;;;;12.98;6.20;;;;;;;;;;5015454;28;20022;-46
2021/03/29 11:50:10;;;;;;;12.55;6.18;;;;;;;;;;5015345;28;20030;-46
2021/03/29 11:52:36;;;;;;;14.70;6.45;;;;;;;;;;5015441;28;20026;-46
2021/03/29 11:55:02;;;;;;;10.25;4.13;;;;;;;;;;5015188;28;20113;-48
2021/03/29 11:57:28;;;;;;;22.02;11.52;;;;;;;;;;5015113;28;20029;-47
2021/03/29 11:59:55;;;;;;;31.55;14.32;;;;;;;;;;5014814;28;20026;-47
2021/03/29 12:02:29;;;;;;;12.88;5.82;;;;;;;;;;5015141;28;20029;-46
2021/03/29 12:07:49;;;;;;;27.27;14.57;;;;;;;;;;5014994;28;20050;-46
2021/03/29 12:13:02;;;;;;;34.25;20.25;;;;;;;;;;5014772;28;20144;-45
2021/03/29 12:15:28;;;;;;;64.90;31.08;;;;;;;;;;5014729;28;20033;-45
2021/03/29 12:17:54;;;;;;;63.20;33.70;;;;;;;;;;5014875;28;20033;-44
2021/03/29 12:20:20;;;;;;;34.60;18.77;;;;;;;;;;5014690;28;20025;-44
2021/03/29 12:22:47;;;;;;;37.85;19.73;;;;;;;;;;5014542;28;20386;-45
2021/03/29 12:25:18;;;;;;;49.33;11.00;;;;;;;;;;5014621;28;20064;-45
2021/03/29 12:27:45;;;;;;;37.35;18.10;;;;;;;;;;5014629;28;20037;-46
2021/03/29 12:30:16;;;;;;;20.00;9.98;;;;;;;;;;5014646;28;20148;-45
2021/03/29 12:32:47;;;;;;;16.92;6.03;;;;;;;;;;5014664;28;20030;-45
2021/03/29 12:35:17;;;;;;;19.98;7.75;;;;;;;;;;5014362;28;20148;-45
2021/03/29 12:37:44;;;;;;;11.02;3.53;;;;;;;;;;5014334;28;20037;-44
2021/03/29 12:40:13;;;;;;;14.40;6.78;;;;;;;;;;5014171;28;20049;-45
2021/03/29 12:42:49;;;;;;;28.70;12.65;;;;;;;;;;5014121;28;20034;-45
2021/03/29 12:45:21;;;;;;;23.48;12.80;;;;;;;;;;5007478;28;20157;-45
2021/03/29 12:47:47;;;;;;;21.15;9.80;;;;;;;;;;4994534;28;20214;-45
2021/03/29 12:50:14;;;;;;;82.47;50.47;;;;;;;;;;4994419;28;20026;-44
2021/03/29 12:52:41;;;;;;;73.45;39.22;;;;;;;;;;4994385;28;20463;-43
2021/03/29 12:55:08;;;;;;;21.50;10.95;;;;;;;;;;4997274;28;20397;-45
2021/03/29 12:57:36;;;;;;;93.80;49.08;;;;;;;;;;5013886;28;20026;-45
2021/03/29 13:00:06;;;;;;;76.63;43.88;;;;;;;;;;5013789;28;20033;-45
2021/03/29 13:02:33;;;;;;;36.65;21.63;;;;;;;;;;5013603;28;20022;-45
2021/03/29 13:05:00;;;;;;;31.95;17.85;;;;;;;;;;5013699;28;20374;-44
2021/03/29 13:12:46;;;;;;;112.55;61.33;;;;;;;;;;4933491;29;20052;-44
2021/03/29 13:15:13;;;;;;;68.18;37.83;;;;;;;;;;4934060;29;20032;-45
2021/03/29 13:17:40;;;;;;;67.18;38.05;;;;;;;;;;4933570;29;20126;-45
2021/03/29 13:20:16;;;;;;;82.72;47.38;;;;;;;;;;4933637;29;20031;-44
2021/03/29 13:22:44;;;;;;;60.08;28.85;;;;;;;;;;4932065;29;20040;-47
2021/03/29 13:25:12;;;;;;;50.78;10.70;;;;;;;;;;4933569;29;20039;-45
2021/03/29 13:27:41;;;;;;;50.88;26.08;;;;;;;;;;4933051;29;20149;-45
2021/03/29 13:30:08;;;;;;;44.60;26.45;;;;;;;;;;4933191;29;20035;-45
2021/03/29 13:32:35;;;;;;;43.00;21.30;;;;;;;;;;4933063;29;20035;-46
2021/03/29 13:35:01;;;;;;;38.58;23.85;;;;;;;;;;4933699;29;20036;-45
2021/03/29 13:37:27;;;;;;;32.65;14.82;;;;;;;;;;4933938;29;20500;-45
2021/03/29 13:39:54;;;;;;;32.72;15.10;;;;;;;;;;4932551;28;20483;-45
2021/03/29 13:42:20;;;;;;;18.70;9.55;;;;;;;;;;4933671;29;20503;-45
2021/03/29 13:44:46;;;;;;;17.55;8.50;;;;;;;;;;4933853;29;20119;-45
2021/03/29 13:47:13;;;;;;;29.30;16.20;;;;;;;;;;4970058;28;20552;-43
2021/03/29 13:49:39;;;;;;;32.22;13.45;;;;;;;;;;5013313;28;20030;-45
2021/03/29 13:52:07;;;;;;;29.23;16.35;;;;;;;;;;5013350;28;20027;-46
2021/03/29 13:54:34;;;;;;;20.70;10.55;;;;;;;;;;5011901;28;20064;-47
2021/03/29 13:57:01;;;;;;;17.65;9.18;;;;;;;;;;4995852;28;20571;-46
2021/03/29 13:59:28;;;;;;;20.85;11.05;;;;;;;;;;4994562;28;20064;-45
2021/03/29 14:01:55;;;;;;;21.63;10.45;;;;;;;;;;4994777;28;20089;-45
2021/03/29 14:04:22;;;;;;;20.73;7.85;;;;;;;;;;4995017;28;20124;-47
2021/03/29 14:06:48;;;;;;;10.27;5.53;;;;;;;;;;4994367;28;20539;-45
2021/03/29 14:09:20;;;;;;;18.75;7.70;;;;;;;;;;4995179;28;20108;-48
2021/03/29 14:11:47;;;;;;;14.98;5.15;;;;;;;;;;4994635;28;20049;-46
2021/03/29 14:14:13;;;;;;;46.35;24.55;;;;;;;;;;4995149;28;20030;-47
2021/03/29 14:16:40;;;;;;;29.45;17.83;;;;;;;;;;4994643;28;20026;-47
2021/03/29 14:19:07;;;;;;;20.40;10.10;;;;;;;;;;4994596;28;20029;-47
2021/03/29 14:21:34;;;;;;;13.18;6.45;;;;;;;;;;4994078;28;20026;-46
2021/03/29 14:24:00;;;;;;;25.00;9.60;;;;;;;;;;4995854;28;20030;-47
2021/03/29 14:26:26;;;;;;;24.70;12.77;;;;;;;;;;4997662;28;20033;-47
2021/03/29 14:28:52;;;;;;;51.13;24.60;;;;;;;;;;4998726;28;20521;-46
2021/03/29 14:31:20;;;;;;;55.15;22.88;;;;;;;;;;4997981;28;20091;-46
2021/03/29 14:33:48;;;;;;;126.18;57.60;;;;;;;;;;4998075;28;20044;-47